Time;durP1;ratioP1;P1;durP2;ratioP2;P2;SDS_P1;SDS_P2;PMS_P1;PMS_P2;Temp;Humidity;BMP_temperature;BMP_pressure;BME280_temperature;BME280_humidity;BME280_pressure;Samples;Min_cycle;Max_cycle;Signal;HPM_P1;HPM_P2
2023/05/18 00:00:09;;;;;;;23.45;2.83;;;;;;;-144.73;68.28;54325.59;5069461;28;20150;-67
2023/05/18 00:02:35;;;;;;;;;;;;;;;-144.73;67.98;54284.56;5070794;28;20028;-67
2023/05/18 00:05:00;;;;;;;20.25;2.78;;;;;;;-144.73;67.92;54313.28;5069847;28;19915;-68
2023/05/18 00:07:28;;;;;;;22.75;3.58;;;;;;;-144.73;67.82;54348.19;5069118;28;20036;-68
2023/05/18 00:09:54;;;;;;;11.15;2.90;;;;;;;-144.73;68.82;54276.34;5070025;28;20028;-68
2023/05/18 00:12:19;;;;;;;18.48;2.92;;;;;;;-144.73;69.42;54366.66;5069069;28;20093;-69
2023/05/18 00:14:45;;;;;;;17.98;2.72;;;;;;;-144.73;70.80;54317.38;5070083;28;20090;-68
2023/05/18 00:17:10;;;;;;;23.98;4.10;;;;;;;-144.73;71.18;54313.28;5068798;28;20048;-69
2023/05/18 00:19:36;;;;;;;18.92;3.28;;;;;;;-144.73;70.33;54296.88;5070154;28;20067;-68
2023/05/18 00:22:01;;;;;;;18.23;2.95;;;;;;;-144.73;70.04;54333.81;5069301;28;20082;-68
2023/05/18 00:24:26;;;;;;;27.48;3.15;;;;;;;-144.73;70.29;54362.53;5069797;28;20056;-69
2023/05/18 00:26:52;;;;;;;18.35;2.60;;;;;;;-144.73;70.00;54321.50;5070276;28;20043;-68
2023/05/18 00:29:18;;;;;;;22.40;2.95;;;;;;;-144.73;71.44;54317.38;5068972;28;20581;-68
2023/05/18 00:31:44;;;;;;;15.88;2.67;;;;;;;-144.73;71.21;54350.22;5068648;28;20036;-68
2023/05/18 00:34:11;;;;;;;18.88;3.70;;;;;;;-144.73;71.57;54313.28;5070038;28;20035;-67
2023/05/18 00:36:38;;;;;;;27.20;3.42;;;;;;;-144.73;71.93;54362.53;5069325;28;20041;-67
2023/05/18 00:39:05;;;;;;;24.42;3.38;;;;;;;-144.73;71.26;54358.44;5070349;28;20035;-68
2023/05/18 00:41:31;;;;;;;13.65;2.83;;;;;;;-144.73;71.20;54309.19;5072662;28;20055;-68
2023/05/18 00:43:56;;;;;;;14.90;3.45;;;;;;;-144.73;72.23;54284.56;5074183;28;20040;-67
2023/05/18 00:46:23;;;;;;;26.55;3.63;;;;;;;-144.73;72.45;54325.59;5074215;28;20024;-68
2023/05/18 00:48:50;;;;;;;18.80;3.30;;;;;;;-144.73;71.29;54317.38;5072691;28;20475;-68
2023/05/18 00:51:20;;;;;;;20.92;3.85;;;;;;;-144.73;71.74;54374.84;5072574;28;20040;-68
2023/05/18 00:53:46;;;;;;;17.38;2.97;;;;;;;-144.73;71.07;54337.91;5073892;28;20032;-68
2023/05/18 00:56:12;;;;;;;25.77;3.38;;;;;;;-144.73;71.13;54325.59;5073845;28;20033;-68
2023/05/18 00:58:38;;;;;;;17.88;3.10;;;;;;;-144.73;72.21;54325.59;5071419;28;20047;-68
2023/05/18 01:01:04;;;;;;;24.75;5.32;;;;;;;-144.73;71.58;54303.03;5072925;28;20034;-68
2023/05/18 01:03:33;;;;;;;18.55;2.60;;;;;;;-144.73;71.07;54346.13;5073187;28;20036;-67
2023/05/18 01:05:58;;;;;;;16.42;2.85;;;;;;;-144.73;70.58;54321.50;5073855;28;20100;-67
2023/05/18 01:08:26;;;;;;;20.92;2.88;;;;;;;-144.73;70.87;54350.22;5073741;28;20056;-68
2023/05/18 01:11:25;;;;;;;23.08;2.83;;;;;;;-144.73;70.65;54333.81;5072847;28;20032;-68
2023/05/18 01:14:07;;;;;;;28.75;2.80;;;;;;;-144.73;71.02;54374.84;5063859;28;20056;-68
2023/05/18 01:16:43;;;;;;;12.20;2.75;;;;;;;-144.73;71.42;54354.34;5072345;28;20036;-68
2023/05/18 01:19:51;;;;;;;24.77;4.00;;;;;;;-144.73;71.89;54339.97;5073782;28;20054;-68
2023/05/18 01:22:36;;;;;;;18.00;2.88;;;;;;;-144.73;71.64;54325.59;5071037;28;20036;-68
2023/05/18 01:25:28;;;;;;;24.80;4.10;;;;;;;-144.73;71.57;54325.59;5072356;28;20040;-68
2023/05/18 01:27:55;;;;;;;23.23;3.22;;;;;;;-144.73;70.93;54354.34;5072015;28;20086;-68
2023/05/18 01:30:21;;;;;;;26.77;3.22;;;;;;;-144.73;70.12;54325.59;5072105;28;20031;-68
2023/05/18 01:32:46;;;;;;;16.10;3.35;;;;;;;-144.73;69.63;54309.19;5073207;28;20032;-67
2023/05/18 01:35:12;;;;;;;20.73;2.80;;;;;;;-144.73;68.62;54319.44;5072489;28;20046;-67
2023/05/18 01:37:37;;;;;;;27.13;3.58;;;;;;;-144.73;69.92;54350.22;5071771;28;20499;-67
2023/05/18 01:40:05;;;;;;;19.77;2.67;;;;;;;-144.73;71.06;54370.75;5072381;28;20374;-67
2023/05/18 01:42:35;;;;;;;17.50;3.33;;;;;;;-144.73;69.55;54350.22;5072049;28;20056;-67
2023/05/18 01:45:07;;;;;;;37.22;3.50;;;;;;;-144.73;69.09;54313.28;5073443;28;20029;-67
2023/05/18 01:47:33;;;;;;;;;;;;;;;-144.73;69.50;54350.22;5074147;28;20033;-67
2023/05/18 01:50:03;;;;;;;18.77;3.42;;;;;;;-144.73;70.67;54325.59;5073273;28;19908;-67
2023/05/18 01:52:35;;;;;;;19.88;3.22;;;;;;;-144.73;71.11;54309.19;5072921;28;20047;-67
2023/05/18 01:55:02;;;;;;;24.10;3.95;;;;;;;-144.73;70.83;54360.50;5073394;28;20025;-67
2023/05/18 01:57:30;;;;;;;15.48;2.75;;;;;;;-144.73;69.98;54333.81;5071331;28;20040;-67
2023/05/18 01:59:58;;;;;;;19.83;3.25;;;;;;;-144.73;69.97;54333.81;5073275;28;20376;-67
2023/05/18 02:02:25;;;;;;;17.50;2.88;;;;;;;-144.73;70.78;54315.34;5072137;28;20064;-67
2023/05/18 02:04:50;;;;;;;21.13;3.20;;;;;;;-144.73;69.72;54305.06;5071408;28;20140;-67
2023/05/18 02:07:16;;;;;;;17.13;3.22;;;;;;;-144.73;71.51;54309.19;5071854;28;20090;-68
2023/05/18 02:09:43;;;;;;;22.05;3.15;;;;;;;-144.73;71.52;54333.81;5072677;28;20405;-67
2023/05/18 02:12:08;;;;;;;18.08;2.97;;;;;;;-144.73;72.79;54383.06;5072340;28;20037;-67
2023/05/18 02:14:34;;;;;;;14.48;3.38;;;;;;;-144.73;71.82;54350.22;5070782;28;20039;-67
2023/05/18 02:16:59;;;;;;;19.80;2.95;;;;;;;-144.73;71.98;54303.03;5070968;28;20047;-67
2023/05/18 02:19:25;;;;;;;17.30;3.15;;;;;;;-144.73;72.16;54325.59;5071270;28;20103;-68
2023/05/18 02:21:50;;;;;;;18.15;2.72;;;;;;;-144.73;73.87;54309.19;5071734;28;20032;-68
2023/05/18 02:24:18;;;;;;;19.50;3.63;;;;;;;-144.73;73.43;54300.97;5071214;28;20040;-68
2023/05/18 02:26:44;;;;;;;23.38;3.70;;;;;;;-144.73;74.00;54333.81;5071329;28;20036;-68
2023/05/18 02:29:10;;;;;;;26.38;3.45;;;;;;;-144.73;73.38;54329.72;5072069;28;20034;-68
2023/05/18 02:31:39;;;;;;;45.22;5.40;;;;;;;-144.73;75.21;54350.22;5071876;28;20056;-68
2023/05/18 02:34:05;;;;;;;21.58;3.60;;;;;;;-144.73;75.69;54313.28;5071883;28;20032;-68
2023/05/18 02:36:35;;;;;;;26.20;3.47;;;;;;;-144.73;74.97;54319.44;5071579;28;20051;-68
2023/05/18 02:39:03;;;;;;;15.55;2.90;;;;;;;-144.73;75.53;54313.28;5072057;28;20025;-68
2023/05/18 02:41:28;;;;;;;26.13;3.75;;;;;;;-144.73;76.35;54327.66;5070390;28;20030;-68
2023/05/18 02:43:54;;;;;;;16.50;2.80;;;;;;;-144.73;75.96;54325.59;5070827;28;20579;-68
2023/05/18 02:46:19;;;;;;;18.58;3.60;;;;;;;-144.73;76.08;54354.34;5070882;28;20024;-68
2023/05/18 02:48:44;;;;;;;23.92;3.10;;;;;;;-144.73;76.63;54317.38;5070802;28;20046;-68
2023/05/18 02:51:10;;;;;;;25.95;2.88;;;;;;;-144.73;76.39;54329.72;5070775;28;20039;-68
2023/05/18 02:53:36;;;;;;;20.58;3.47;;;;;;;-144.73;76.60;54325.59;5071368;28;20042;-68
2023/05/18 02:56:02;;;;;;;21.80;3.05;;;;;;;-144.73;76.63;54315.34;5070721;28;20032;-68
2023/05/18 02:58:28;;;;;;;20.17;3.83;;;;;;;-144.73;76.43;54337.91;5070205;28;20040;-68
2023/05/18 03:00:58;;;;;;;26.40;4.50;;;;;;;-144.73;75.62;54358.44;5071114;28;20082;-68
2023/05/18 03:03:24;;;;;;;28.05;3.65;;;;;;;-144.73;75.82;54329.72;5069921;28;20052;-68
2023/05/18 03:05:52;;;;;;;24.35;3.90;;;;;;;-144.73;76.25;54321.50;5069917;28;20035;-68
2023/05/18 03:08:25;;;;;;;19.52;2.95;;;;;;;-144.73;75.90;54362.53;5070067;28;20029;-67
2023/05/18 03:10:51;;;;;;;30.77;4.00;;;;;;;-144.73;76.00;54354.34;5070223;28;20036;-67
2023/05/18 03:13:16;;;;;;;17.88;3.25;;;;;;;-144.73;76.28;54296.88;5069783;28;20111;-68
2023/05/18 03:15:44;;;;;;;23.38;2.72;;;;;;;-144.73;76.48;54319.44;5070829;28;20033;-67
2023/05/18 03:18:10;;;;;;;18.52;2.78;;;;;;;-144.73;74.49;54358.44;5069657;28;20056;-67
2023/05/18 03:20:36;;;;;;;21.67;3.15;;;;;;;-144.73;73.42;54325.59;5069341;28;20506;-67
2023/05/18 03:23:02;;;;;;;24.08;3.45;;;;;;;-144.73;73.79;54333.81;5069586;28;20033;-67
2023/05/18 03:25:28;;;;;;;21.88;3.22;;;;;;;-144.73;74.33;54307.13;5070079;28;20027;-67
2023/05/18 03:27:53;;;;;;;16.38;2.60;;;;;;;-144.73;73.79;54325.59;5069286;28;20047;-67
2023/05/18 03:30:19;;;;;;;20.73;3.25;;;;;;;-144.73;73.00;54358.44;5070807;28;20111;-67
2023/05/18 03:32:47;;;;;;;26.85;4.10;;;;;;;-144.73;71.47;54313.28;5069991;28;20036;-67
2023/05/18 03:35:13;;;;;;;16.42;2.83;;;;;;;-144.73;71.57;54300.97;5070365;28;20039;-67
2023/05/18 03:37:39;;;;;;;25.17;2.58;;;;;;;-144.73;72.80;54319.44;5070884;28;20040;-67
2023/05/18 03:40:10;;;;;;;23.05;3.50;;;;;;;-144.73;72.57;54300.97;5069796;28;20043;-67
2023/05/18 03:42:36;;;;;;;12.57;2.63;;;;;;;-144.73;72.67;54321.50;5069018;28;20029;-67
2023/05/18 03:45:02;;;;;;;21.60;3.60;;;;;;;-144.73;72.72;54292.75;5071355;28;20025;-67
2023/05/18 03:47:28;;;;;;;23.67;3.38;;;;;;;-144.73;73.56;54305.06;5069211;28;20028;-67
2023/05/18 03:49:54;;;;;;;17.80;2.60;;;;;;;-144.73;72.74;54333.81;5068973;28;20020;-67
2023/05/18 03:52:21;;;;;;;20.20;3.10;;;;;;;-144.73;73.07;54321.50;5070025;28;20120;-68
2023/05/18 03:54:48;;;;;;;24.08;3.50;;;;;;;-144.73;72.77;54325.59;5069367;28;20028;-68
2023/05/18 03:57:15;;;;;;;14.82;3.35;;;;;;;-144.73;73.62;54329.72;5069973;28;20044;-68
2023/05/18 03:59:40;;;;;;;19.73;3.17;;;;;;;-144.73;72.53;54288.66;5069198;28;20048;-68
2023/05/18 04:02:06;;;;;;;21.10;3.08;;;;;;;-144.73;72.19;54321.50;5068721;28;20067;-68
2023/05/18 04:04:32;;;;;;;30.75;3.72;;;;;;;-144.73;71.54;54309.19;5070402;28;20044;-68
2023/05/18 04:06:57;;;;;;;22.55;3.20;;;;;;;-144.73;71.06;54350.22;5068567;28;20032;-68
2023/05/18 04:09:22;;;;;;;17.35;3.33;;;;;;;-144.73;69.75;54366.66;5069355;28;20054;-68
2023/05/18 04:11:48;;;;;;;17.27;2.85;;;;;;;-144.73;70.87;54333.81;5068971;28;20029;-67
2023/05/18 04:14:13;;;;;;;15.70;2.83;;;;;;;-144.73;69.70;54305.06;5072932;28;20028;-67
2023/05/18 04:16:40;;;;;;;20.10;3.25;;;;;;;-144.73;71.17;54411.81;5073410;28;20379;-67
2023/05/18 04:19:06;;;;;;;25.55;4.25;;;;;;;-144.73;71.26;54342.03;5073274;28;20028;-67
2023/05/18 04:21:34;;;;;;;17.52;3.40;;;;;;;-144.73;70.56;54313.28;5074142;28;20020;-67
2023/05/18 04:24:06;;;;;;;14.85;3.40;;;;;;;-144.73;71.26;54333.81;5074349;28;20021;-67
2023/05/18 04:26:37;;;;;;;16.60;2.92;;;;;;;-144.73;70.36;54294.81;5072320;28;20102;-68
2023/05/18 04:29:02;;;;;;;17.60;3.13;;;;;;;-144.73;69.98;54321.50;5074624;28;20027;-70
2023/05/18 04:31:28;;;;;;;18.23;3.13;;;;;;;-144.73;67.81;54282.50;5074019;28;20056;-71
2023/05/18 04:33:56;;;;;;;14.80;3.95;;;;;;;-144.73;68.96;54309.19;5070900;28;20033;-71
2023/05/18 04:36:24;;;;;;;23.30;4.05;;;;;;;-144.73;68.66;54305.06;5062520;28;20033;-70
2023/05/18 04:38:57;;;;;;;16.70;2.50;;;;;;;-144.73;66.86;54354.34;5068439;28;20064;-71
2023/05/18 04:41:22;;;;;;;22.70;3.08;;;;;;;-144.73;66.59;54333.81;5076391;28;20372;-71
2023/05/18 04:43:49;;;;;;;19.25;2.97;;;;;;;-144.73;66.77;54337.91;5077844;28;20093;-70
2023/05/18 04:46:18;;;;;;;17.27;3.85;;;;;;;-144.73;67.23;54350.22;5077863;28;20029;-71
2023/05/18 04:48:43;;;;;;;14.18;2.25;;;;;;;-144.73;67.69;54309.19;5075439;28;20024;-71
2023/05/18 04:51:09;;;;;;;22.13;2.88;;;;;;;-144.73;67.36;54354.34;5074484;28;20031;-70
2023/05/18 04:53:34;;;;;;;17.17;3.58;;;;;;;-144.73;67.03;54321.50;5070955;28;20036;-70
2023/05/18 04:56:00;;;;;;;25.45;3.55;;;;;;;-144.73;67.24;54327.66;5083131;28;20024;-70
2023/05/18 04:58:32;;;;;;;22.67;3.92;;;;;;;-144.73;66.81;54337.91;5066543;28;20040;-70
2023/05/18 05:00:58;;;;;;;15.82;2.92;;;;;;;-144.73;67.81;54321.50;5067317;28;20029;-70
2023/05/18 05:03:23;;;;;;;19.45;3.55;;;;;;;-144.73;67.71;54327.66;5066728;28;20044;-70
2023/05/18 05:05:48;;;;;;;21.88;3.50;;;;;;;-144.73;66.88;54284.56;5064838;28;20037;-70
2023/05/18 05:08:15;;;;;;;22.17;3.17;;;;;;;-144.73;67.48;54329.72;5081657;28;20048;-70
2023/05/18 05:10:40;;;;;;;13.02;2.80;;;;;;;-144.73;67.25;54305.06;5072246;28;20095;-71
2023/05/18 05:13:05;;;;;;;28.92;4.22;;;;;;;-144.73;66.31;54284.56;5071680;28;20107;-71
2023/05/18 05:15:31;;;;;;;27.95;3.08;;;;;;;-144.73;65.24;54307.13;5078588;28;20028;-70
2023/05/18 05:17:57;;;;;;;12.77;3.35;;;;;;;-144.73;64.15;54309.19;5071241;28;20040;-71
2023/05/18 05:20:22;;;;;;;19.60;2.80;;;;;;;-144.73;64.38;54309.19;5079346;28;20024;-70
2023/05/18 05:22:48;;;;;;;20.05;3.10;;;;;;;-144.73;64.35;54315.34;5082610;28;20028;-70
2023/05/18 05:25:13;;;;;;;19.58;3.53;;;;;;;-144.73;64.52;54309.19;5081563;28;20042;-70
2023/05/18 05:27:38;;;;;;;18.65;3.05;;;;;;;-144.73;64.29;54327.66;5084903;28;20048;-70
2023/05/18 05:30:05;;;;;;;16.65;2.67;;;;;;;-144.73;64.92;54342.03;5083172;28;20027;-70
2023/05/18 05:32:30;;;;;;;27.08;3.20;;;;;;;-144.73;65.54;54309.19;5076848;28;20032;-71
2023/05/18 05:34:56;;;;;;;25.25;3.50;;;;;;;-144.73;65.71;54284.56;5085713;28;20426;-71
2023/05/18 05:37:21;;;;;;;11.30;2.55;;;;;;;-144.73;64.85;54337.91;5077869;28;20406;-71
2023/05/18 05:39:47;;;;;;;17.50;2.42;;;;;;;-144.73;65.20;54333.81;5079570;28;20024;-71
2023/05/18 05:42:12;;;;;;;15.45;3.05;;;;;;;-144.73;65.10;54337.91;5079284;28;20025;-72
2023/05/18 05:44:39;;;;;;;25.30;3.40;;;;;;;-144.73;65.16;54300.97;5076849;28;20037;-71
2023/05/18 05:47:05;;;;;;;16.75;2.40;;;;;;;-144.73;64.63;54360.50;5074014;28;20103;-71
2023/05/18 05:49:30;;;;;;;15.15;3.08;;;;;;;-144.73;65.21;54329.72;5075434;28;20207;-69
2023/05/18 05:51:56;;;;;;;26.48;3.83;;;;;;;-144.73;64.39;54319.44;5075982;28;20032;-70
2023/05/18 05:54:21;;;;;;;23.70;3.25;;;;;;;-144.73;64.58;54346.13;5067931;28;20075;-69
2023/05/18 05:56:46;;;;;;;17.92;3.22;;;;;;;-144.73;64.42;54337.91;5089894;28;20119;-69
2023/05/18 05:59:12;;;;;;;19.98;3.28;;;;;;;-144.73;64.78;54317.38;5075122;28;20459;-69
2023/05/18 06:01:37;;;;;;;16.42;2.42;;;;;;;-144.73;62.46;54313.28;5083373;28;20036;-70
2023/05/18 06:04:05;;;;;;;21.25;3.25;;;;;;;-144.73;62.71;54327.66;5081004;28;20029;-69
2023/05/18 06:06:31;;;;;;;20.08;4.20;;;;;;;-144.73;63.18;54321.50;5076633;28;20068;-68
2023/05/18 06:08:56;;;;;;;18.20;3.00;;;;;;;-144.73;62.34;54300.97;5081775;28;20039;-70
2023/05/18 06:11:22;;;;;;;14.07;2.83;;;;;;;-144.73;62.79;54303.03;5070873;28;20020;-68
2023/05/18 06:13:47;;;;;;;29.35;3.50;;;;;;;-144.73;62.51;54350.22;5073126;28;20048;-68
2023/05/18 06:16:13;;;;;;;12.93;2.42;;;;;;;-144.73;63.46;54317.38;5071165;28;20035;-69
2023/05/18 06:18:38;;;;;;;15.40;2.53;;;;;;;-144.73;63.29;54307.13;5070420;28;20151;-68
2023/05/18 06:21:03;;;;;;;16.77;2.90;;;;;;;-144.73;62.67;54284.56;5079542;28;20020;-68
2023/05/18 06:23:29;;;;;;;24.83;3.85;;;;;;;-144.73;63.58;54346.13;5085660;28;20043;-68
2023/05/18 06:25:54;;;;;;;25.10;5.13;;;;;;;-144.73;62.07;54300.97;5077441;28;20028;-68
2023/05/18 06:28:20;;;;;;;10.27;3.28;;;;;;;-144.73;62.00;54284.56;5085489;28;20031;-69
2023/05/18 06:30:46;;;;;;;14.23;2.63;;;;;;;-144.73;62.64;54300.97;5073058;28;20032;-68
2023/05/18 06:33:12;;;;;;;14.98;2.85;;;;;;;-144.73;61.41;54284.56;5082329;28;20429;-70
2023/05/18 06:35:37;;;;;;;27.85;3.47;;;;;;;-144.73;61.53;54288.66;5075320;28;20029;-68
2023/05/18 06:38:03;;;;;;;15.95;2.78;;;;;;;-144.73;61.72;54346.13;5070320;28;20082;-68
2023/05/18 06:40:28;;;;;;;33.70;3.08;;;;;;;-144.73;61.15;54331.75;5074600;28;20069;-68
2023/05/18 06:42:54;;;;;;;17.70;2.90;;;;;;;-144.73;61.69;54292.75;5070429;28;20047;-69
2023/05/18 06:45:19;;;;;;;15.25;2.75;;;;;;;-144.73;62.08;54309.19;5065874;28;20036;-69
2023/05/18 06:47:45;;;;;;;14.45;3.65;;;;;;;-144.73;62.00;54329.72;5061684;28;20028;-69
2023/05/18 06:50:10;;;;;;;13.88;2.20;;;;;;;-144.73;61.24;54329.72;5072619;28;20020;-70
2023/05/18 06:52:35;;;;;;;24.05;3.15;;;;;;;-144.73;60.96;54296.88;5066318;28;20491;-69
2023/05/18 06:55:01;;;;;;;30.05;3.58;;;;;;;-144.73;60.17;54280.44;5070701;28;20025;-69
2023/05/18 06:57:26;;;;;;;18.13;2.83;;;;;;;-144.73;60.19;54321.50;5081390;28;20067;-69
2023/05/18 06:59:52;;;;;;;16.95;2.42;;;;;;;-144.73;60.02;54331.75;5082489;28;20036;-70
2023/05/18 07:02:19;;;;;;;11.90;2.75;;;;;;;-144.73;59.20;54276.34;5082013;28;20059;-69
2023/05/18 07:04:46;;;;;;;21.60;3.38;;;;;;;-144.73;59.22;54311.22;5075904;28;20154;-71
2023/05/18 07:07:11;;;;;;;15.93;2.67;;;;;;;-144.73;57.90;54313.28;5076710;28;20228;-69
2023/05/18 07:09:37;;;;;;;14.35;3.00;;;;;;;-144.73;58.04;54255.81;5081093;28;20060;-68
2023/05/18 07:12:02;;;;;;;15.98;2.95;;;;;;;-144.73;58.00;54292.75;5062174;28;20039;-68
2023/05/18 07:14:27;;;;;;;14.57;2.33;;;;;;;-144.73;60.04;54342.03;5072358;28;20047;-70
2023/05/18 07:16:53;;;;;;;23.35;3.65;;;;;;;-144.73;60.02;54325.59;5060975;28;20048;-69
2023/05/18 07:19:18;;;;;;;19.05;2.65;;;;;;;-144.73;59.26;54325.59;5068787;28;20024;-70
2023/05/18 07:21:43;;;;;;;15.13;2.83;;;;;;;-144.73;59.26;54309.19;5074748;28;20047;-69
2023/05/18 07:24:09;;;;;;;26.63;3.22;;;;;;;-144.73;59.75;54309.19;5076235;28;20067;-69
2023/05/18 07:26:34;;;;;;;18.88;2.70;;;;;;;-144.73;59.84;54315.34;5071330;28;20036;-69
2023/05/18 07:28:59;;;;;;;19.30;3.08;;;;;;;-144.73;60.11;54276.34;5074101;28;20052;-69
2023/05/18 07:31:25;;;;;;;15.77;2.78;;;;;;;-144.73;59.72;54255.81;5068790;28;20080;-69
2023/05/18 07:33:51;;;;;;;10.38;2.30;;;;;;;-144.73;59.16;54280.44;5069176;28;20072;-69
2023/05/18 07:36:16;;;;;;;15.85;2.85;;;;;;;-144.73;59.32;54313.28;5068931;28;20052;-69
2023/05/18 07:38:41;;;;;;;17.20;4.25;;;;;;;-144.73;58.85;54292.75;5085073;28;20050;-70
2023/05/18 07:41:07;;;;;;;21.88;3.72;;;;;;;-144.73;57.44;54337.91;5072454;28;20048;-69
2023/05/18 07:43:32;;;;;;;17.83;3.05;;;;;;;-144.73;56.72;54292.75;5077269;28;20089;-68
2023/05/18 07:45:57;;;;;;;13.43;3.03;;;;;;;-144.73;55.77;54305.06;5079960;28;20077;-69
2023/05/18 07:48:23;;;;;;;15.40;3.00;;;;;;;-144.73;55.84;54333.81;5075744;28;20086;-69
2023/05/18 07:50:48;;;;;;;18.85;2.63;;;;;;;-144.73;56.22;54321.50;5077522;28;20025;-70
2023/05/18 07:53:13;;;;;;;15.38;2.70;;;;;;;-144.73;55.26;54282.50;5079034;28;20040;-70
2023/05/18 07:55:40;;;;;;;15.82;2.97;;;;;;;-144.73;56.38;54264.03;5075367;28;20023;-70
2023/05/18 07:58:08;;;;;;;19.85;3.17;;;;;;;-144.73;55.25;54331.75;5086274;28;20119;-70
2023/05/18 08:00:33;;;;;;;22.70;3.25;;;;;;;-144.73;54.44;54276.34;5075744;28;20115;-69
2023/05/18 08:03:01;;;;;;;11.35;2.10;;;;;;;-144.73;52.33;54259.91;5064557;28;20052;-69
2023/05/18 08:05:27;;;;;;;21.58;3.05;;;;;;;-144.73;52.83;54247.59;5068603;28;20027;-70
2023/05/18 08:07:52;;;;;;;15.40;3.10;;;;;;;-144.73;52.32;54288.66;5069294;28;20016;-70
2023/05/18 08:10:17;;;;;;;14.93;3.10;;;;;;;-144.73;51.22;54292.75;5069572;28;20031;-70
2023/05/18 08:12:43;;;;;;;12.85;2.83;;;;;;;-144.73;51.38;54233.25;5078092;28;20055;-70
2023/05/18 08:15:09;;;;;;;18.00;3.25;;;;;;;-144.73;52.20;54276.34;5072167;28;20099;-70
2023/05/18 08:17:34;;;;;;;15.40;2.85;;;;;;;-144.73;52.51;54300.97;5081188;28;20032;-69
2023/05/18 08:20:00;;;;;;;17.15;3.42;;;;;;;-144.73;51.55;54309.19;5092211;28;20032;-68
2023/05/18 08:22:25;;;;;;;13.00;2.85;;;;;;;-144.73;49.85;54239.41;5075939;28;20036;-69
2023/05/18 08:24:50;;;;;;;13.45;3.40;;;;;;;-144.73;49.56;54225.03;5077312;28;20030;-69
2023/05/18 08:27:16;;;;;;;10.80;2.15;;;;;;;-144.73;48.68;54227.09;5071271;28;20043;-70
2023/05/18 08:29:41;;;;;;;17.45;3.20;;;;;;;-144.73;48.62;54268.13;5081716;28;20034;-69
2023/05/18 08:32:07;;;;;;;12.15;3.00;;;;;;;-144.73;48.41;54239.41;5072882;28;20032;-69
2023/05/18 08:34:33;;;;;;;13.73;2.85;;;;;;;-144.73;47.59;54255.81;5076494;28;20016;-70
2023/05/18 08:36:59;;;;;;;15.55;4.60;;;;;;;-144.73;48.01;54259.91;5074483;28;20047;-70
2023/05/18 08:39:24;;;;;;;11.35;2.97;;;;;;;-144.73;48.17;54342.03;5080116;28;20035;-69
2023/05/18 08:41:57;;;;;;;13.35;3.13;;;;;;;-144.73;49.85;54264.03;5068472;28;20032;-70
2023/05/18 08:44:33;;;;;;;23.85;2.85;;;;;;;-144.73;49.70;54276.34;5062552;28;20020;-70
2023/05/18 08:46:59;;;;;;;9.27;2.75;;;;;;;-144.73;49.91;54284.56;5067976;28;20033;-70
2023/05/18 08:49:25;;;;;;;15.00;5.45;;;;;;;-144.73;50.79;54292.75;5068946;28;20028;-70
2023/05/18 08:51:56;;;;;;;15.02;3.10;;;;;;;-144.73;50.95;54268.13;5068065;28;20036;-71
2023/05/18 08:54:23;;;;;;;16.98;2.75;;;;;;;-144.73;51.22;54251.72;5066326;28;20038;-70
2023/05/18 08:56:50;;;;;;;18.90;3.05;;;;;;;-144.73;51.05;54342.03;5074683;28;20037;-69
2023/05/18 08:59:22;;;;;;;18.42;3.42;;;;;;;-144.73;49.07;54255.81;5076152;28;20035;-70
2023/05/18 09:01:47;;;;;;;18.52;3.28;;;;;;;-144.73;47.93;54247.59;5074226;28;20029;-70
2023/05/18 09:04:13;;;;;;;15.68;2.55;;;;;;;-144.73;48.92;54264.03;5075283;28;20028;-70
2023/05/18 09:06:39;;;;;;;12.82;2.38;;;;;;;-144.73;48.46;54259.91;5067208;28;20491;-70
2023/05/18 09:09:05;;;;;;;13.88;2.78;;;;;;;-144.73;49.35;54305.06;5073730;28;20529;-70
2023/05/18 09:11:32;;;;;;;19.95;3.40;;;;;;;-144.73;48.97;54313.28;5083134;28;20021;-70
2023/05/18 09:13:59;;;;;;;12.20;3.03;;;;;;;-144.73;49.47;54280.44;5063098;28;20020;-70
2023/05/18 09:16:25;;;;;;;18.65;3.33;;;;;;;-144.73;49.98;54239.41;5080530;28;20016;-70
2023/05/18 09:18:51;;;;;;;22.02;3.17;;;;;;;-144.73;51.28;54239.41;5080111;28;20028;-70
2023/05/18 09:21:16;;;;;;;14.38;3.15;;;;;;;-144.73;49.03;54212.72;5076745;28;20032;-71
2023/05/18 09:23:42;;;;;;;23.42;2.95;;;;;;;-144.73;49.47;54247.59;5070595;28;20044;-70
2023/05/18 09:26:12;;;;;;;19.65;3.20;;;;;;;-144.73;50.73;54282.50;5072680;28;20029;-70
2023/05/18 09:28:42;;;;;;;10.50;2.80;;;;;;;-144.73;48.15;54276.34;5070587;28;20032;-70
2023/05/18 09:31:11;;;;;;;16.92;2.33;;;;;;;-144.73;48.19;54239.41;5071090;28;20013;-70
2023/05/18 09:33:38;;;;;;;14.15;3.47;;;;;;;-144.73;47.17;54231.19;5067708;28;20032;-70
2023/05/18 09:36:05;;;;;;;10.75;2.92;;;;;;;-144.73;47.46;54231.19;5072511;28;20028;-70
2023/05/18 09:38:42;;;;;;;15.82;2.78;;;;;;;-144.73;47.63;54247.59;5071610;28;20035;-70
2023/05/18 09:41:09;;;;;;;13.95;3.08;;;;;;;-144.73;46.95;54239.41;5076256;28;20466;-70
2023/05/18 09:43:35;;;;;;;16.70;3.90;;;;;;;-144.73;47.90;54239.41;5070385;28;20032;-70
2023/05/18 09:46:07;;;;;;;15.63;2.80;;;;;;;-144.73;48.87;54251.72;5079479;28;20039;-70
2023/05/18 09:48:40;;;;;;;22.25;4.43;;;;;;;-144.73;48.99;54284.56;5073336;28;20110;-70
2023/05/18 09:51:06;;;;;;;11.35;2.90;;;;;;;-144.73;49.80;54239.41;5073140;28;20023;-70
2023/05/18 09:53:36;;;;;;;24.27;3.90;;;;;;;-144.73;50.09;54305.06;5087474;28;20099;-69
2023/05/18 09:56:05;;;;;;;14.95;3.00;;;;;;;-144.73;49.85;54243.50;5083220;28;20028;-68
2023/05/18 09:58:32;;;;;;;11.15;2.67;;;;;;;-144.73;48.55;54251.72;5071262;28;20423;-70
2023/05/18 10:01:00;;;;;;;15.95;2.83;;;;;;;-144.73;47.00;54251.72;5074750;28;20020;-69
2023/05/18 10:03:31;;;;;;;9.02;2.45;;;;;;;-144.73;46.02;54303.03;5069635;28;20036;-69
2023/05/18 10:06:02;;;;;;;12.82;2.60;;;;;;;-144.73;44.86;54268.13;5070566;28;20028;-70
2023/05/18 10:08:27;;;;;;;12.15;3.08;;;;;;;-144.73;45.04;54251.72;5070221;28;20036;-70
2023/05/18 10:10:52;;;;;;;15.65;3.40;;;;;;;-144.73;44.96;54247.59;5079497;28;20028;-71
2023/05/18 10:13:19;;;;;;;13.88;3.17;;;;;;;-144.73;43.99;54227.09;5084909;28;20085;-70
2023/05/18 10:15:54;;;;;;;16.00;3.22;;;;;;;-144.73;41.16;54259.91;5080965;28;20048;-70
2023/05/18 10:18:22;;;;;;;18.10;3.30;;;;;;;-144.73;40.43;54251.72;5077210;28;20052;-70
2023/05/18 10:20:49;;;;;;;16.25;3.33;;;;;;;-144.73;40.95;54342.03;5089076;28;20023;-69
2023/05/18 10:23:17;;;;;;;17.85;3.13;;;;;;;-144.73;41.27;54276.34;5080520;28;20032;-70
2023/05/18 10:25:45;;;;;;;13.32;3.40;;;;;;;-144.73;41.16;54251.72;5073757;28;20024;-69
2023/05/18 10:28:12;;;;;;;16.60;4.45;;;;;;;-144.73;41.15;54342.03;5082503;28;20027;-70
2023/05/18 10:30:40;;;;;;;16.83;3.92;;;;;;;-144.73;41.54;54276.34;5082259;28;20043;-70
2023/05/18 10:33:06;;;;;;;26.45;3.78;;;;;;;-144.73;40.82;54276.34;5075478;28;20455;-70
2023/05/18 10:35:32;;;;;;;19.58;3.85;;;;;;;-144.73;41.05;54214.78;5080604;28;20047;-70
2023/05/18 10:37:58;;;;;;;21.02;3.35;;;;;;;-144.73;39.92;54227.09;5083154;28;20071;-69
2023/05/18 10:40:27;;;;;;;17.83;2.75;;;;;;;-144.73;41.13;54247.59;5073954;28;20024;-70
2023/05/18 10:42:56;;;;;;;8.10;3.47;;;;;;;-144.73;40.85;54276.34;5070482;28;20064;-69
2023/05/18 10:45:21;;;;;;;16.75;3.40;;;;;;;-144.73;41.22;54239.41;5073122;28;20032;-70
2023/05/18 10:47:52;;;;;;;20.45;7.00;;;;;;;-144.73;41.82;54342.03;5079632;28;20552;-69
2023/05/18 10:50:19;;;;;;;27.88;7.75;;;;;;;-144.73;40.24;54241.44;5075418;28;20021;-70
2023/05/18 10:52:46;;;;;;;13.88;4.13;;;;;;;-144.73;39.71;54218.88;5085185;28;20084;-69
2023/05/18 10:55:12;;;;;;;14.25;3.60;;;;;;;-144.73;39.46;54243.50;5076740;28;20016;-70
2023/05/18 10:57:42;;;;;;;17.20;3.05;;;;;;;-144.73;39.49;54294.81;5072752;28;20029;-69
2023/05/18 11:00:09;;;;;;;21.40;8.40;;;;;;;-144.73;40.21;54280.44;5088590;28;20027;-70
2023/05/18 11:02:41;;;;;;;37.17;16.35;;;;;;;-144.73;40.04;54216.81;5076621;28;20146;-70
2023/05/18 11:05:08;;;;;;;17.10;4.28;;;;;;;-144.73;38.79;54259.91;5071474;28;20025;-70
2023/05/18 11:07:34;;;;;;;16.25;2.95;;;;;;;-144.73;37.62;54239.41;5075764;28;20094;-70